sensor_id;sensor_type;location;lat;lon;timestamp;P1;durP1;ratioP1;P2;durP2;ratioP2
80425;SDS011;69766;51.476;5.704;2023-06-14T00:00:52;11.18;;;7.97;;
80425;SDS011;69766;51.476;5.704;2023-06-14T00:03:21;10.80;;;7.10;;
80425;SDS011;69766;51.476;5.704;2023-06-14T00:05:49;12.80;;;8.07;;
80425;SDS011;69766;51.476;5.704;2023-06-14T00:08:15;10.35;;;7.45;;
80425;SDS011;69766;51.476;5.704;2023-06-14T00:10:41;11.43;;;8.15;;
80425;SDS011;69766;51.476;5.704;2023-06-14T00:13:07;12.85;;;7.78;;
80425;SDS011;69766;51.476;5.704;2023-06-14T00:15:34;10.95;;;7.55;;
80425;SDS011;69766;51.476;5.704;2023-06-14T00:18:00;12.50;;;7.60;;
80425;SDS011;69766;51.476;5.704;2023-06-14T00:20:27;11.43;;;7.50;;
80425;SDS011;69766;51.476;5.704;2023-06-14T00:22:54;9.63;;;7.25;;
80425;SDS011;69766;51.476;5.704;2023-06-14T00:25:23;11.13;;;7.50;;
80425;SDS011;69766;51.476;5.704;2023-06-14T00:27:52;12.23;;;7.32;;
80425;SDS011;69766;51.476;5.704;2023-06-14T00:30:22;11.13;;;7.18;;
80425;SDS011;69766;51.476;5.704;2023-06-14T00:32:48;12.52;;;7.82;;
80425;SDS011;69766;51.476;5.704;2023-06-14T00:35:15;10.65;;;7.65;;
80425;SDS011;69766;51.476;5.704;2023-06-14T00:37:40;11.50;;;7.40;;
80425;SDS011;69766;51.476;5.704;2023-06-14T00:40:06;9.63;;;7.15;;
80425;SDS011;69766;51.476;5.704;2023-06-14T00:42:32;9.25;;;6.65;;
80425;SDS011;69766;51.476;5.704;2023-06-14T00:44:59;11.88;;;7.50;;
80425;SDS011;69766;51.476;5.704;2023-06-14T00:47:25;11.13;;;6.65;;
80425;SDS011;69766;51.476;5.704;2023-06-14T00:49:52;10.40;;;7.18;;
80425;SDS011;69766;51.476;5.704;2023-06-14T00:52:18;12.82;;;6.95;;
80425;SDS011;69766;51.476;5.704;2023-06-14T00:54:45;10.57;;;7.43;;
80425;SDS011;69766;51.476;5.704;2023-06-14T00:57:11;11.88;;;7.30;;
80425;SDS011;69766;51.476;5.704;2023-06-14T00:59:43;11.13;;;6.85;;
80425;SDS011;69766;51.476;5.704;2023-06-14T01:02:13;9.30;;;6.95;;
80425;SDS011;69766;51.476;5.704;2023-06-14T01:04:43;11.98;;;7.25;;
80425;SDS011;69766;51.476;5.704;2023-06-14T01:07:25;11.05;;;6.93;;
80425;SDS011;69766;51.476;5.704;2023-06-14T01:13:11;10.55;;;7.15;;
80425;SDS011;69766;51.476;5.704;2023-06-14T01:15:47;11.35;;;6.30;;
80425;SDS011;69766;51.476;5.704;2023-06-14T01:18:14;10.90;;;7.20;;
80425;SDS011;69766;51.476;5.704;2023-06-14T01:20:42;11.25;;;6.82;;
80425;SDS011;69766;51.476;5.704;2023-06-14T01:23:20;10.90;;;6.85;;
80425;SDS011;69766;51.476;5.704;2023-06-14T01:25:47;11.32;;;7.45;;
80425;SDS011;69766;51.476;5.704;2023-06-14T01:28:17;11.68;;;6.13;;
80425;SDS011;69766;51.476;5.704;2023-06-14T01:30:47;9.40;;;6.55;;
80425;SDS011;69766;51.476;5.704;2023-06-14T01:33:24;12.98;;;6.93;;
80425;SDS011;69766;51.476;5.704;2023-06-14T01:35:53;10.63;;;6.38;;
80425;SDS011;69766;51.476;5.704;2023-06-14T01:38:20;9.15;;;6.63;;
80425;SDS011;69766;51.476;5.704;2023-06-14T01:40:50;11.75;;;6.72;;
80425;SDS011;69766;51.476;5.704;2023-06-14T01:45:45;10.60;;;6.53;;
80425;SDS011;69766;51.476;5.704;2023-06-14T01:48:13;10.45;;;6.28;;
80425;SDS011;69766;51.476;5.704;2023-06-14T01:50:39;11.07;;;6.05;;
80425;SDS011;69766;51.476;5.704;2023-06-14T01:53:08;9.65;;;6.30;;
80425;SDS011;69766;51.476;5.704;2023-06-14T01:55:35;10.45;;;6.40;;
80425;SDS011;69766;51.476;5.704;2023-06-14T01:58:05;11.85;;;6.95;;
80425;SDS011;69766;51.476;5.704;2023-06-14T02:00:31;11.05;;;6.18;;
80425;SDS011;69766;51.476;5.704;2023-06-14T02:02:57;8.95;;;6.63;;
80425;SDS011;69766;51.476;5.704;2023-06-14T02:05:23;10.85;;;6.53;;
80425;SDS011;69766;51.476;5.704;2023-06-14T02:07:49;9.65;;;6.43;;
80425;SDS011;69766;51.476;5.704;2023-06-14T02:10:15;9.50;;;6.20;;
80425;SDS011;69766;51.476;5.704;2023-06-14T02:12:42;8.98;;;5.75;;
80425;SDS011;69766;51.476;5.704;2023-06-14T02:15:08;13.73;;;6.35;;
80425;SDS011;69766;51.476;5.704;2023-06-14T02:17:50;9.95;;;5.88;;
80425;SDS011;69766;51.476;5.704;2023-06-14T02:20:17;12.05;;;6.22;;
80425;SDS011;69766;51.476;5.704;2023-06-14T02:22:43;10.25;;;5.78;;
80425;SDS011;69766;51.476;5.704;2023-06-14T02:25:09;9.52;;;6.38;;
80425;SDS011;69766;51.476;5.704;2023-06-14T02:27:35;9.98;;;5.57;;
80425;SDS011;69766;51.476;5.704;2023-06-14T02:30:00;10.18;;;5.65;;
80425;SDS011;69766;51.476;5.704;2023-06-14T02:32:26;9.40;;;5.03;;
80425;SDS011;69766;51.476;5.704;2023-06-14T02:34:52;10.82;;;5.43;;
80425;SDS011;69766;51.476;5.704;2023-06-14T02:37:19;11.02;;;5.65;;
80425;SDS011;69766;51.476;5.704;2023-06-14T02:39:48;8.82;;;4.85;;
80425;SDS011;69766;51.476;5.704;2023-06-14T02:42:14;8.13;;;5.20;;
80425;SDS011;69766;51.476;5.704;2023-06-14T02:44:40;7.63;;;5.55;;
80425;SDS011;69766;51.476;5.704;2023-06-14T02:47:09;10.32;;;5.65;;
80425;SDS011;69766;51.476;5.704;2023-06-14T02:49:35;7.72;;;5.03;;
80425;SDS011;69766;51.476;5.704;2023-06-14T02:52:00;7.72;;;4.75;;
80425;SDS011;69766;51.476;5.704;2023-06-14T02:54:27;8.70;;;5.00;;
80425;SDS011;69766;51.476;5.704;2023-06-14T02:56:53;10.07;;;4.95;;
80425;SDS011;69766;51.476;5.704;2023-06-14T02:59:19;10.50;;;4.93;;
80425;SDS011;69766;51.476;5.704;2023-06-14T03:01:46;9.38;;;5.15;;
80425;SDS011;69766;51.476;5.704;2023-06-14T03:04:12;9.15;;;5.10;;
80425;SDS011;69766;51.476;5.704;2023-06-14T03:06:37;8.48;;;5.25;;
80425;SDS011;69766;51.476;5.704;2023-06-14T03:09:04;8.02;;;5.53;;
80425;SDS011;69766;51.476;5.704;2023-06-14T03:11:31;12.30;;;5.68;;
80425;SDS011;69766;51.476;5.704;2023-06-14T03:13:57;7.88;;;5.05;;
80425;SDS011;69766;51.476;5.704;2023-06-14T03:16:23;7.20;;;5.07;;
80425;SDS011;69766;51.476;5.704;2023-06-14T03:18:52;7.57;;;5.45;;
80425;SDS011;69766;51.476;5.704;2023-06-14T03:21:21;10.57;;;5.10;;
80425;SDS011;69766;51.476;5.704;2023-06-14T03:23:47;10.50;;;5.53;;
80425;SDS011;69766;51.476;5.704;2023-06-14T03:26:14;9.05;;;5.15;;
80425;SDS011;69766;51.476;5.704;2023-06-14T03:28:43;9.05;;;5.47;;
80425;SDS011;69766;51.476;5.704;2023-06-14T03:31:14;8.55;;;5.60;;
80425;SDS011;69766;51.476;5.704;2023-06-14T03:33:41;8.75;;;4.85;;
80425;SDS011;69766;51.476;5.704;2023-06-14T03:36:10;11.52;;;5.25;;
80425;SDS011;69766;51.476;5.704;2023-06-14T03:38:36;11.02;;;5.93;;
80425;SDS011;69766;51.476;5.704;2023-06-14T03:41:01;7.90;;;5.20;;
80425;SDS011;69766;51.476;5.704;2023-06-14T03:43:27;9.05;;;5.38;;
80425;SDS011;69766;51.476;5.704;2023-06-14T03:45:53;8.07;;;5.15;;
80425;SDS011;69766;51.476;5.704;2023-06-14T03:48:19;7.28;;;4.95;;
80425;SDS011;69766;51.476;5.704;2023-06-14T03:50:48;11.38;;;5.78;;
80425;SDS011;69766;51.476;5.704;2023-06-14T03:53:14;8.00;;;4.65;;
80425;SDS011;69766;51.476;5.704;2023-06-14T03:55:45;11.55;;;5.70;;
80425;SDS011;69766;51.476;5.704;2023-06-14T03:58:17;8.20;;;4.85;;
80425;SDS011;69766;51.476;5.704;2023-06-14T04:00:43;8.93;;;5.10;;
80425;SDS011;69766;51.476;5.704;2023-06-14T04:03:10;9.63;;;5.35;;
80425;SDS011;69766;51.476;5.704;2023-06-14T04:05:38;9.30;;;5.30;;
80425;SDS011;69766;51.476;5.704;2023-06-14T04:08:07;8.30;;;5.60;;
80425;SDS011;69766;51.476;5.704;2023-06-14T04:10:34;7.93;;;4.90;;
80425;SDS011;69766;51.476;5.704;2023-06-14T04:13:00;9.60;;;5.03;;
80425;SDS011;69766;51.476;5.704;2023-06-14T04:15:26;9.35;;;5.00;;
80425;SDS011;69766;51.476;5.704;2023-06-14T04:17:54;9.88;;;5.47;;
80425;SDS011;69766;51.476;5.704;2023-06-14T04:20:22;9.30;;;4.93;;
80425;SDS011;69766;51.476;5.704;2023-06-14T04:22:51;10.95;;;5.68;;
80425;SDS011;69766;51.476;5.704;2023-06-14T04:25:17;10.93;;;5.90;;
80425;SDS011;69766;51.476;5.704;2023-06-14T04:27:43;8.70;;;4.93;;
80425;SDS011;69766;51.476;5.704;2023-06-14T04:30:09;9.45;;;4.85;;
80425;SDS011;69766;51.476;5.704;2023-06-14T04:32:35;12.32;;;5.47;;
80425;SDS011;69766;51.476;5.704;2023-06-14T04:35:07;8.27;;;4.90;;
80425;SDS011;69766;51.476;5.704;2023-06-14T04:37:34;8.27;;;5.28;;
80425;SDS011;69766;51.476;5.704;2023-06-14T04:39:59;8.93;;;5.32;;
80425;SDS011;69766;51.476;5.704;2023-06-14T04:42:26;11.57;;;5.68;;
80425;SDS011;69766;51.476;5.704;2023-06-14T04:44:55;10.45;;;5.22;;
80425;SDS011;69766;51.476;5.704;2023-06-14T04:47:20;10.75;;;5.05;;
80425;SDS011;69766;51.476;5.704;2023-06-14T04:49:46;11.38;;;5.53;;
80425;SDS011;69766;51.476;5.704;2023-06-14T04:52:12;8.27;;;5.30;;
80425;SDS011;69766;51.476;5.704;2023-06-14T04:54:38;9.90;;;5.20;;
80425;SDS011;69766;51.476;5.704;2023-06-14T04:57:07;9.32;;;5.78;;
80425;SDS011;69766;51.476;5.704;2023-06-14T04:59:33;10.32;;;6.03;;
80425;SDS011;69766;51.476;5.704;2023-06-14T05:02:00;10.98;;;6.03;;
80425;SDS011;69766;51.476;5.704;2023-06-14T05:04:27;10.15;;;5.40;;
80425;SDS011;69766;51.476;5.704;2023-06-14T05:06:54;10.05;;;6.20;;
80425;SDS011;69766;51.476;5.704;2023-06-14T05:09:20;10.02;;;5.38;;
80425;SDS011;69766;51.476;5.704;2023-06-14T05:11:46;10.82;;;5.65;;
80425;SDS011;69766;51.476;5.704;2023-06-14T05:14:12;9.98;;;5.25;;
80425;SDS011;69766;51.476;5.704;2023-06-14T05:16:39;10.00;;;5.93;;
80425;SDS011;69766;51.476;5.704;2023-06-14T05:19:05;10.07;;;5.60;;
80425;SDS011;69766;51.476;5.704;2023-06-14T05:21:32;9.23;;;5.63;;
80425;SDS011;69766;51.476;5.704;2023-06-14T05:24:03;14.68;;;5.85;;
80425;SDS011;69766;51.476;5.704;2023-06-14T05:26:29;9.80;;;5.25;;
80425;SDS011;69766;51.476;5.704;2023-06-14T05:28:57;16.30;;;5.03;;
80425;SDS011;69766;51.476;5.704;2023-06-14T05:31:26;8.35;;;4.88;;
80425;SDS011;69766;51.476;5.704;2023-06-14T05:33:53;12.02;;;5.30;;
80425;SDS011;69766;51.476;5.704;2023-06-14T05:36:19;11.40;;;5.32;;
80425;SDS011;69766;51.476;5.704;2023-06-14T05:38:46;10.02;;;5.50;;
80425;SDS011;69766;51.476;5.704;2023-06-14T05:41:11;9.27;;;5.00;;
80425;SDS011;69766;51.476;5.704;2023-06-14T05:43:37;9.43;;;5.13;;
80425;SDS011;69766;51.476;5.704;2023-06-14T05:46:03;10.18;;;4.63;;
80425;SDS011;69766;51.476;5.704;2023-06-14T05:48:30;10.82;;;4.85;;
80425;SDS011;69766;51.476;5.704;2023-06-14T05:50:56;8.95;;;4.57;;
80425;SDS011;69766;51.476;5.704;2023-06-14T05:53:22;8.30;;;4.80;;
80425;SDS011;69766;51.476;5.704;2023-06-14T05:55:47;7.28;;;4.43;;
80425;SDS011;69766;51.476;5.704;2023-06-14T05:58:14;10.90;;;4.82;;
80425;SDS011;69766;51.476;5.704;2023-06-14T06:00:39;8.55;;;4.72;;
80425;SDS011;69766;51.476;5.704;2023-06-14T06:03:05;7.22;;;4.85;;
80425;SDS011;69766;51.476;5.704;2023-06-14T06:05:33;10.02;;;5.07;;
80425;SDS011;69766;51.476;5.704;2023-06-14T06:07:59;8.88;;;4.85;;
80425;SDS011;69766;51.476;5.704;2023-06-14T06:10:25;9.65;;;4.43;;
80425;SDS011;69766;51.476;5.704;2023-06-14T06:12:51;7.75;;;4.47;;
80425;SDS011;69766;51.476;5.704;2023-06-14T06:15:17;6.85;;;4.15;;
80425;SDS011;69766;51.476;5.704;2023-06-14T06:17:43;11.85;;;5.22;;
80425;SDS011;69766;51.476;5.704;2023-06-14T06:20:09;8.13;;;4.68;;
80425;SDS011;69766;51.476;5.704;2023-06-14T06:22:36;8.30;;;4.70;;
80425;SDS011;69766;51.476;5.704;2023-06-14T06:25:02;8.30;;;4.13;;
80425;SDS011;69766;51.476;5.704;2023-06-14T06:27:28;10.70;;;4.47;;
80425;SDS011;69766;51.476;5.704;2023-06-14T06:29:54;10.60;;;4.55;;
80425;SDS011;69766;51.476;5.704;2023-06-14T06:32:20;8.15;;;4.50;;
80425;SDS011;69766;51.476;5.704;2023-06-14T06:34:46;12.45;;;4.50;;
80425;SDS011;69766;51.476;5.704;2023-06-14T06:37:13;9.32;;;4.28;;
80425;SDS011;69766;51.476;5.704;2023-06-14T06:39:39;9.18;;;4.45;;
80425;SDS011;69766;51.476;5.704;2023-06-14T06:42:04;7.40;;;3.78;;
80425;SDS011;69766;51.476;5.704;2023-06-14T06:44:31;12.68;;;4.30;;
80425;SDS011;69766;51.476;5.704;2023-06-14T06:46:57;7.72;;;3.58;;
80425;SDS011;69766;51.476;5.704;2023-06-14T06:49:23;7.90;;;3.85;;
80425;SDS011;69766;51.476;5.704;2023-06-14T06:51:59;9.10;;;3.95;;
80425;SDS011;69766;51.476;5.704;2023-06-14T06:54:27;6.43;;;3.90;;
80425;SDS011;69766;51.476;5.704;2023-06-14T06:56:52;7.43;;;3.50;;
80425;SDS011;69766;51.476;5.704;2023-06-14T06:59:18;6.65;;;3.88;;
80425;SDS011;69766;51.476;5.704;2023-06-14T07:01:44;10.38;;;4.18;;
80425;SDS011;69766;51.476;5.704;2023-06-14T07:04:10;11.15;;;4.25;;
80425;SDS011;69766;51.476;5.704;2023-06-14T07:06:35;7.47;;;3.92;;
80425;SDS011;69766;51.476;5.704;2023-06-14T07:09:02;9.48;;;4.35;;
80425;SDS011;69766;51.476;5.704;2023-06-14T07:11:33;9.18;;;3.97;;
80425;SDS011;69766;51.476;5.704;2023-06-14T07:13:59;11.23;;;4.10;;
80425;SDS011;69766;51.476;5.704;2023-06-14T07:16:24;10.80;;;4.47;;
80425;SDS011;69766;51.476;5.704;2023-06-14T07:18:50;8.05;;;3.70;;
80425;SDS011;69766;51.476;5.704;2023-06-14T07:21:17;8.45;;;4.15;;
80425;SDS011;69766;51.476;5.704;2023-06-14T07:23:43;8.63;;;3.72;;
80425;SDS011;69766;51.476;5.704;2023-06-14T07:26:08;8.80;;;3.75;;
80425;SDS011;69766;51.476;5.704;2023-06-14T07:28:34;7.07;;;4.05;;
80425;SDS011;69766;51.476;5.704;2023-06-14T07:31:00;6.07;;;4.03;;
80425;SDS011;69766;51.476;5.704;2023-06-14T07:33:26;11.60;;;4.10;;
80425;SDS011;69766;51.476;5.704;2023-06-14T07:35:52;10.68;;;3.78;;
80425;SDS011;69766;51.476;5.704;2023-06-14T07:38:18;11.75;;;3.60;;
80425;SDS011;69766;51.476;5.704;2023-06-14T07:40:43;13.63;;;3.60;;
80425;SDS011;69766;51.476;5.704;2023-06-14T07:43:09;9.38;;;3.22;;
80425;SDS011;69766;51.476;5.704;2023-06-14T07:45:36;9.02;;;3.65;;
80425;SDS011;69766;51.476;5.704;2023-06-14T07:48:02;9.50;;;3.55;;
80425;SDS011;69766;51.476;5.704;2023-06-14T07:50:28;8.27;;;3.53;;
80425;SDS011;69766;51.476;5.704;2023-06-14T07:52:54;8.95;;;3.22;;
80425;SDS011;69766;51.476;5.704;2023-06-14T07:55:19;8.88;;;3.42;;
80425;SDS011;69766;51.476;5.704;2023-06-14T07:57:45;6.15;;;2.85;;
80425;SDS011;69766;51.476;5.704;2023-06-14T08:00:11;10.80;;;3.03;;
80425;SDS011;69766;51.476;5.704;2023-06-14T08:02:43;6.97;;;2.60;;
80425;SDS011;69766;51.476;5.704;2023-06-14T08:07:39;5.65;;;2.80;;
80425;SDS011;69766;51.476;5.704;2023-06-14T08:10:05;5.32;;;2.25;;
80425;SDS011;69766;51.476;5.704;2023-06-14T08:12:32;6.22;;;2.40;;
80425;SDS011;69766;51.476;5.704;2023-06-14T08:14:59;6.13;;;2.58;;
80425;SDS011;69766;51.476;5.704;2023-06-14T08:17:25;5.55;;;2.70;;
80425;SDS011;69766;51.476;5.704;2023-06-14T08:19:50;5.90;;;2.33;;
80425;SDS011;69766;51.476;5.704;2023-06-14T08:22:16;6.05;;;2.30;;
80425;SDS011;69766;51.476;5.704;2023-06-14T08:24:43;4.68;;;2.53;;
80425;SDS011;69766;51.476;5.704;2023-06-14T08:27:09;5.55;;;2.58;;
80425;SDS011;69766;51.476;5.704;2023-06-14T08:29:35;4.80;;;2.10;;
80425;SDS011;69766;51.476;5.704;2023-06-14T08:32:07;8.68;;;2.40;;
80425;SDS011;69766;51.476;5.704;2023-06-14T08:34:33;6.07;;;2.30;;
80425;SDS011;69766;51.476;5.704;2023-06-14T08:36:59;5.65;;;2.03;;
80425;SDS011;69766;51.476;5.704;2023-06-14T08:39:25;4.82;;;2.10;;
80425;SDS011;69766;51.476;5.704;2023-06-14T08:41:52;4.80;;;2.00;;
80425;SDS011;69766;51.476;5.704;2023-06-14T08:44:22;4.55;;;2.00;;
80425;SDS011;69766;51.476;5.704;2023-06-14T08:46:48;6.93;;;1.75;;
80425;SDS011;69766;51.476;5.704;2023-06-14T08:49:16;5.63;;;2.00;;
80425;SDS011;69766;51.476;5.704;2023-06-14T08:51:42;8.10;;;1.90;;
80425;SDS011;69766;51.476;5.704;2023-06-14T08:54:09;5.68;;;1.60;;
80425;SDS011;69766;51.476;5.704;2023-06-14T08:56:37;3.90;;;1.75;;
80425;SDS011;69766;51.476;5.704;2023-06-14T08:59:03;2.80;;;1.60;;
80425;SDS011;69766;51.476;5.704;2023-06-14T09:01:32;5.00;;;1.60;;
80425;SDS011;69766;51.476;5.704;2023-06-14T09:03:59;3.10;;;1.65;;
80425;SDS011;69766;51.476;5.704;2023-06-14T09:06:25;3.22;;;1.50;;
80425;SDS011;69766;51.476;5.704;2023-06-14T09:08:53;2.50;;;1.55;;
80425;SDS011;69766;51.476;5.704;2023-06-14T09:11:22;4.97;;;1.30;;
80425;SDS011;69766;51.476;5.704;2023-06-14T09:13:48;4.20;;;1.65;;
80425;SDS011;69766;51.476;5.704;2023-06-14T09:16:15;1.95;;;1.20;;
80425;SDS011;69766;51.476;5.704;2023-06-14T09:21:13;3.67;;;1.35;;
80425;SDS011;69766;51.476;5.704;2023-06-14T09:23:43;8.40;;;1.50;;
80425;SDS011;69766;51.476;5.704;2023-06-14T09:26:11;3.38;;;1.40;;
80425;SDS011;69766;51.476;5.704;2023-06-14T09:28:44;4.30;;;1.20;;
80425;SDS011;69766;51.476;5.704;2023-06-14T09:31:14;2.88;;;1.05;;
80425;SDS011;69766;51.476;5.704;2023-06-14T09:33:44;3.72;;;1.20;;
80425;SDS011;69766;51.476;5.704;2023-06-14T09:36:16;2.72;;;1.17;;
80425;SDS011;69766;51.476;5.704;2023-06-14T09:39:04;2.65;;;1.33;;
80425;SDS011;69766;51.476;5.704;2023-06-14T09:41:33;2.75;;;1.30;;
80425;SDS011;69766;51.476;5.704;2023-06-14T09:44:01;2.08;;;1.00;;
80425;SDS011;69766;51.476;5.704;2023-06-14T09:46:30;3.83;;;1.48;;
80425;SDS011;69766;51.476;5.704;2023-06-14T09:49:00;3.92;;;1.40;;
80425;SDS011;69766;51.476;5.704;2023-06-14T09:51:27;3.47;;;1.30;;
80425;SDS011;69766;51.476;5.704;2023-06-14T09:53:56;4.63;;;1.67;;
80425;SDS011;69766;51.476;5.704;2023-06-14T09:56:29;3.58;;;1.60;;
80425;SDS011;69766;51.476;5.704;2023-06-14T09:58:59;3.63;;;1.50;;
80425;SDS011;69766;51.476;5.704;2023-06-14T10:01:26;3.45;;;1.38;;
80425;SDS011;69766;51.476;5.704;2023-06-14T10:03:57;4.82;;;1.58;;
80425;SDS011;69766;51.476;5.704;2023-06-14T10:06:28;2.10;;;1.20;;
80425;SDS011;69766;51.476;5.704;2023-06-14T10:08:59;4.40;;;1.60;;
80425;SDS011;69766;51.476;5.704;2023-06-14T10:13:51;2.80;;;1.30;;
80425;SDS011;69766;51.476;5.704;2023-06-14T10:24:30;4.50;;;1.60;;
80425;SDS011;69766;51.476;5.704;2023-06-14T10:26:59;3.67;;;1.58;;
80425;SDS011;69766;51.476;5.704;2023-06-14T10:29:26;3.67;;;1.60;;
80425;SDS011;69766;51.476;5.704;2023-06-14T10:31:57;6.25;;;1.63;;
80425;SDS011;69766;51.476;5.704;2023-06-14T10:34:28;4.10;;;1.40;;
80425;SDS011;69766;51.476;5.704;2023-06-14T10:37:02;3.90;;;1.30;;
80425;SDS011;69766;51.476;5.704;2023-06-14T10:39:46;2.78;;;1.50;;
80425;SDS011;69766;51.476;5.704;2023-06-14T10:42:12;5.05;;;1.75;;
80425;SDS011;69766;51.476;5.704;2023-06-14T10:47:11;3.25;;;1.42;;
80425;SDS011;69766;51.476;5.704;2023-06-14T10:49:57;4.22;;;1.50;;
80425;SDS011;69766;51.476;5.704;2023-06-14T10:52:33;4.55;;;1.50;;
80425;SDS011;69766;51.476;5.704;2023-06-14T10:55:12;2.38;;;1.50;;
80425;SDS011;69766;51.476;5.704;2023-06-14T10:57:53;3.08;;;1.20;;
80425;SDS011;69766;51.476;5.704;2023-06-14T11:00:24;3.08;;;1.30;;
80425;SDS011;69766;51.476;5.704;2023-06-14T11:05:53;7.75;;;1.75;;
80425;SDS011;69766;51.476;5.704;2023-06-14T11:08:26;3.03;;;1.65;;
80425;SDS011;69766;51.476;5.704;2023-06-14T11:11:11;3.28;;;1.40;;
80425;SDS011;69766;51.476;5.704;2023-06-14T11:13:39;3.22;;;1.60;;
80425;SDS011;69766;51.476;5.704;2023-06-14T11:16:10;3.22;;;1.35;;
80425;SDS011;69766;51.476;5.704;2023-06-14T11:18:37;6.55;;;1.75;;
80425;SDS011;69766;51.476;5.704;2023-06-14T11:21:03;3.60;;;1.20;;
80425;SDS011;69766;51.476;5.704;2023-06-14T11:23:28;3.67;;;1.33;;
80425;SDS011;69766;51.476;5.704;2023-06-14T11:25:54;3.60;;;1.30;;
80425;SDS011;69766;51.476;5.704;2023-06-14T11:28:20;2.25;;;1.27;;
80425;SDS011;69766;51.476;5.704;2023-06-14T11:30:47;2.97;;;1.00;;
80425;SDS011;69766;51.476;5.704;2023-06-14T11:33:17;4.70;;;1.45;;
80425;SDS011;69766;51.476;5.704;2023-06-14T11:35:46;3.97;;;1.38;;
80425;SDS011;69766;51.476;5.704;2023-06-14T11:38:12;2.60;;;1.20;;
80425;SDS011;69766;51.476;5.704;2023-06-14T11:40:38;3.95;;;1.42;;
80425;SDS011;69766;51.476;5.704;2023-06-14T11:43:04;2.10;;;1.15;;
80425;SDS011;69766;51.476;5.704;2023-06-14T11:45:30;3.47;;;1.50;;
80425;SDS011;69766;51.476;5.704;2023-06-14T11:47:56;2.80;;;1.30;;
80425;SDS011;69766;51.476;5.704;2023-06-14T11:50:23;3.13;;;1.40;;
80425;SDS011;69766;51.476;5.704;2023-06-14T11:52:57;3.15;;;1.10;;
80425;SDS011;69766;51.476;5.704;2023-06-14T11:55:38;2.90;;;1.27;;
80425;SDS011;69766;51.476;5.704;2023-06-14T11:58:05;5.82;;;1.40;;
80425;SDS011;69766;51.476;5.704;2023-06-14T12:00:32;4.20;;;1.27;;
80425;SDS011;69766;51.476;5.704;2023-06-14T12:03:00;7.90;;;1.70;;
80425;SDS011;69766;51.476;5.704;2023-06-14T12:05:26;1.98;;;1.20;;
80425;SDS011;69766;51.476;5.704;2023-06-14T12:07:57;4.28;;;1.35;;
80425;SDS011;69766;51.476;5.704;2023-06-14T12:10:25;3.50;;;1.42;;
80425;SDS011;69766;51.476;5.704;2023-06-14T12:12:51;3.40;;;1.52;;
80425;SDS011;69766;51.476;5.704;2023-06-14T12:15:21;4.10;;;1.60;;
80425;SDS011;69766;51.476;5.704;2023-06-14T12:17:47;4.45;;;1.48;;
80425;SDS011;69766;51.476;5.704;2023-06-14T12:20:13;2.75;;;1.38;;
80425;SDS011;69766;51.476;5.704;2023-06-14T12:22:50;3.42;;;1.30;;
80425;SDS011;69766;51.476;5.704;2023-06-14T12:27:57;5.65;;;1.75;;
80425;SDS011;69766;51.476;5.704;2023-06-14T12:30:24;3.33;;;1.27;;
80425;SDS011;69766;51.476;5.704;2023-06-14T12:32:50;3.85;;;1.40;;
80425;SDS011;69766;51.476;5.704;2023-06-14T12:35:17;3.13;;;1.60;;
80425;SDS011;69766;51.476;5.704;2023-06-14T12:37:46;4.50;;;1.38;;
80425;SDS011;69766;51.476;5.704;2023-06-14T12:40:12;4.50;;;1.33;;
80425;SDS011;69766;51.476;5.704;2023-06-14T12:42:38;8.52;;;1.38;;
80425;SDS011;69766;51.476;5.704;2023-06-14T12:45:05;4.75;;;0.90;;
80425;SDS011;69766;51.476;5.704;2023-06-14T12:47:31;3.55;;;1.35;;
80425;SDS011;69766;51.476;5.704;2023-06-14T12:49:57;3.72;;;1.25;;
80425;SDS011;69766;51.476;5.704;2023-06-14T12:52:23;4.43;;;1.20;;
80425;SDS011;69766;51.476;5.704;2023-06-14T12:54:49;3.53;;;1.05;;
80425;SDS011;69766;51.476;5.704;2023-06-14T12:57:15;7.97;;;1.25;;
80425;SDS011;69766;51.476;5.704;2023-06-14T12:59:46;3.78;;;1.20;;
80425;SDS011;69766;51.476;5.704;2023-06-14T13:04:39;3.80;;;1.30;;
80425;SDS011;69766;51.476;5.704;2023-06-14T13:07:05;3.60;;;1.23;;
80425;SDS011;69766;51.476;5.704;2023-06-14T13:09:31;5.97;;;1.52;;
80425;SDS011;69766;51.476;5.704;2023-06-14T13:11:57;1.65;;;1.00;;
80425;SDS011;69766;51.476;5.704;2023-06-14T13:14:22;2.08;;;1.25;;
80425;SDS011;69766;51.476;5.704;2023-06-14T13:16:48;3.83;;;1.20;;
80425;SDS011;69766;51.476;5.704;2023-06-14T13:19:14;2.95;;;1.13;;
80425;SDS011;69766;51.476;5.704;2023-06-14T13:21:39;5.55;;;1.35;;
80425;SDS011;69766;51.476;5.704;2023-06-14T13:24:05;3.05;;;1.05;;
80425;SDS011;69766;51.476;5.704;2023-06-14T13:26:31;3.75;;;1.00;;
80425;SDS011;69766;51.476;5.704;2023-06-14T13:28:58;2.20;;;1.10;;
80425;SDS011;69766;51.476;5.704;2023-06-14T13:31:23;4.20;;;0.93;;
80425;SDS011;69766;51.476;5.704;2023-06-14T13:33:49;3.28;;;1.13;;
80425;SDS011;69766;51.476;5.704;2023-06-14T13:36:15;3.28;;;1.15;;
80425;SDS011;69766;51.476;5.704;2023-06-14T13:38:41;6.93;;;1.02;;
80425;SDS011;69766;51.476;5.704;2023-06-14T13:41:06;2.75;;;0.80;;
80425;SDS011;69766;51.476;5.704;2023-06-14T13:43:34;5.97;;;1.05;;
80425;SDS011;69766;51.476;5.704;2023-06-14T13:46:00;6.97;;;1.27;;
80425;SDS011;69766;51.476;5.704;2023-06-14T13:48:26;5.38;;;1.00;;
80425;SDS011;69766;51.476;5.704;2023-06-14T13:50:51;5.43;;;1.15;;
80425;SDS011;69766;51.476;5.704;2023-06-14T13:53:17;3.22;;;0.90;;
80425;SDS011;69766;51.476;5.704;2023-06-14T13:55:43;2.03;;;0.82;;
80425;SDS011;69766;51.476;5.704;2023-06-14T13:58:09;5.30;;;1.25;;
80425;SDS011;69766;51.476;5.704;2023-06-14T14:00:35;4.13;;;1.20;;
80425;SDS011;69766;51.476;5.704;2023-06-14T14:05:31;1.27;;;0.88;;
80425;SDS011;69766;51.476;5.704;2023-06-14T14:07:56;3.92;;;0.82;;
80425;SDS011;69766;51.476;5.704;2023-06-14T14:10:24;2.45;;;1.10;;
80425;SDS011;69766;51.476;5.704;2023-06-14T14:12:50;3.20;;;0.77;;
80425;SDS011;69766;51.476;5.704;2023-06-14T14:15:17;1.95;;;0.73;;
80425;SDS011;69766;51.476;5.704;2023-06-14T14:17:43;2.42;;;0.82;;
80425;SDS011;69766;51.476;5.704;2023-06-14T14:20:09;6.68;;;1.15;;
80425;SDS011;69766;51.476;5.704;2023-06-14T14:22:46;2.65;;;1.00;;
80425;SDS011;69766;51.476;5.704;2023-06-14T14:25:12;2.30;;;1.10;;
80425;SDS011;69766;51.476;5.704;2023-06-14T14:27:38;4.10;;;0.90;;
80425;SDS011;69766;51.476;5.704;2023-06-14T14:30:04;3.03;;;1.08;;
80425;SDS011;69766;51.476;5.704;2023-06-14T14:32:30;2.28;;;0.80;;
80425;SDS011;69766;51.476;5.704;2023-06-14T14:34:56;2.60;;;0.82;;
80425;SDS011;69766;51.476;5.704;2023-06-14T14:37:23;1.85;;;0.80;;
80425;SDS011;69766;51.476;5.704;2023-06-14T14:39:48;3.83;;;0.90;;
80425;SDS011;69766;51.476;5.704;2023-06-14T14:42:14;5.65;;;1.30;;
80425;SDS011;69766;51.476;5.704;2023-06-14T14:44:40;6.75;;;1.20;;
80425;SDS011;69766;51.476;5.704;2023-06-14T14:47:06;3.63;;;0.93;;
80425;SDS011;69766;51.476;5.704;2023-06-14T14:49:32;2.95;;;0.90;;
80425;SDS011;69766;51.476;5.704;2023-06-14T14:51:57;2.80;;;0.93;;
80425;SDS011;69766;51.476;5.704;2023-06-14T14:54:29;1.77;;;1.20;;
80425;SDS011;69766;51.476;5.704;2023-06-14T14:56:55;4.53;;;1.10;;
80425;SDS011;69766;51.476;5.704;2023-06-14T14:59:20;3.28;;;1.02;;
80425;SDS011;69766;51.476;5.704;2023-06-14T15:01:49;4.10;;;1.30;;
80425;SDS011;69766;51.476;5.704;2023-06-14T15:04:15;4.32;;;1.20;;
80425;SDS011;69766;51.476;5.704;2023-06-14T15:06:41;6.22;;;1.08;;
80425;SDS011;69766;51.476;5.704;2023-06-14T15:09:07;3.33;;;1.20;;
80425;SDS011;69766;51.476;5.704;2023-06-14T15:11:33;1.70;;;0.93;;
80425;SDS011;69766;51.476;5.704;2023-06-14T15:13:58;3.03;;;1.42;;
80425;SDS011;69766;51.476;5.704;2023-06-14T15:16:24;3.22;;;1.20;;
80425;SDS011;69766;51.476;5.704;2023-06-14T15:18:50;2.80;;;1.20;;